createdAt,value
2018-12-14T00:01:29.690Z,-0.43
2018-12-14T00:04:04.619Z,-0.35
2018-12-14T00:06:40.293Z,-0.39
2018-12-14T00:09:13.690Z,-0.44
2018-12-14T00:11:46.523Z,-0.42
2018-12-14T00:14:21.361Z,-0.47
2018-12-14T00:16:54.088Z,-0.45
2018-12-14T00:19:26.733Z,-0.45
2018-12-14T00:22:00.704Z,-0.49
2018-12-14T00:24:33.427Z,-0.48
2018-12-14T00:27:06.176Z,-0.48
2018-12-14T00:37:11.127Z,-0.36
2018-12-14T00:39:43.826Z,-0.39
2018-12-14T00:42:16.483Z,-0.39
2018-12-14T00:44:49.135Z,-0.47
2018-12-14T00:47:21.931Z,-0.56
2018-12-14T00:49:54.569Z,-0.55
2018-12-14T00:52:27.172Z,-0.43
2018-12-14T00:54:59.799Z,-0.45
2018-12-14T00:57:33.636Z,-0.47
2018-12-14T01:00:09.976Z,-0.51
2018-12-14T01:02:45.257Z,-0.49
2018-12-14T01:05:19.382Z,-0.39
2018-12-14T01:07:52.135Z,-0.33
2018-12-14T01:10:25.613Z,-0.24
2018-12-14T01:13:00.273Z,-0.13
2018-12-14T01:15:33.486Z,-0.07
2018-12-14T01:18:06.166Z,-0.07
2018-12-14T01:20:39.398Z,-0.11
2018-12-14T01:23:12.060Z,-0.13
2018-12-14T01:25:44.614Z,-0.20
2018-12-14T01:28:17.222Z,-0.21
2018-12-14T01:30:49.858Z,-0.29
2018-12-14T01:33:22.424Z,-0.36
2018-12-14T01:35:55.005Z,-0.41
2018-12-14T01:38:28.244Z,-0.41
2018-12-14T01:41:00.814Z,-0.42
2018-12-14T01:43:33.402Z,-0.44
2018-12-14T01:46:06.089Z,-0.42
2018-12-14T01:48:39.215Z,-0.44
2018-12-14T01:51:11.784Z,-0.44
2018-12-14T01:53:44.321Z,-0.49
2018-12-14T01:56:16.860Z,-0.47
2018-12-14T01:58:49.600Z,-0.49
2018-12-14T02:01:22.210Z,-0.58
2018-12-14T02:03:54.844Z,-0.54
2018-12-14T02:06:27.542Z,-0.44
2018-12-14T02:09:00.261Z,-0.40
2018-12-14T02:11:32.851Z,-0.37
2018-12-14T02:14:05.532Z,-0.41
2018-12-14T02:16:38.026Z,-0.40
2018-12-14T02:19:10.766Z,-0.37
2018-12-14T02:21:43.313Z,-0.30
2018-12-14T02:24:15.917Z,-0.26
2018-12-14T02:26:48.652Z,-0.22
2018-12-14T02:29:21.229Z,-0.27
2018-12-14T02:31:53.864Z,-0.23
2018-12-14T02:34:26.435Z,-0.25
2018-12-14T02:36:59.020Z,-0.24
2018-12-14T02:39:31.815Z,-0.26
2018-12-14T02:42:04.396Z,-0.30
2018-12-14T02:44:36.993Z,-0.24
2018-12-14T02:47:09.599Z,-0.27
2018-12-14T02:49:42.216Z,-0.28
2018-12-14T02:52:14.844Z,-0.32
2018-12-14T02:54:47.567Z,-0.38
2018-12-14T02:57:20.140Z,-0.41
2018-12-14T02:59:52.662Z,-0.42
2018-12-14T03:02:25.374Z,-0.44
2018-12-14T03:04:57.960Z,-0.41
2018-12-14T03:07:30.611Z,-0.46
2018-12-14T03:10:03.811Z,-0.57
2018-12-14T03:12:36.444Z,-0.59
2018-12-14T03:15:09.599Z,-0.63
2018-12-14T03:17:42.143Z,-0.66
2018-12-14T03:20:14.734Z,-0.68
2018-12-14T03:22:48.347Z,-0.66
2018-12-14T03:25:21.107Z,-0.67
2018-12-14T03:27:53.663Z,-0.75
2018-12-14T03:30:26.346Z,-0.78
2018-12-14T03:32:59.005Z,-0.78
2018-12-14T03:35:31.640Z,-0.82
2018-12-14T03:38:04.264Z,-0.88
2018-12-14T03:40:36.784Z,-0.89
2018-12-14T03:43:09.451Z,-0.95
2018-12-14T03:45:42.597Z,-0.93
2018-12-14T03:48:15.296Z,-0.98
2018-12-14T03:50:47.877Z,-0.97
2018-12-14T03:54:49.983Z,-1.01
2018-12-14T03:57:22.738Z,-1.01
2018-12-14T03:59:55.337Z,-0.97
2018-12-14T04:02:27.937Z,-0.90
2018-12-14T04:05:01.489Z,-0.90
2018-12-14T04:07:34.097Z,-0.93
2018-12-14T04:10:06.767Z,-0.98
2018-12-14T04:12:41.917Z,-0.97
2018-12-14T04:15:14.826Z,-0.90
2018-12-14T04:17:47.459Z,-0.92
2018-12-14T04:20:20.055Z,-0.98
2018-12-14T04:22:52.602Z,-0.94
2018-12-14T04:25:25.165Z,-0.98
2018-12-14T04:27:58.489Z,-0.98
2018-12-14T04:30:31.649Z,-0.95
2018-12-14T04:33:04.325Z,-0.95
2018-12-14T04:35:37.587Z,-0.96
2018-12-14T04:38:12.226Z,-1.00
2018-12-14T04:40:44.794Z,-0.96
2018-12-14T04:43:17.333Z,-1.02
2018-12-14T04:45:49.940Z,-0.99
2018-12-14T04:48:22.958Z,-1.03
2018-12-14T04:50:55.513Z,-1.04
2018-12-14T04:53:28.146Z,-1.03
2018-12-14T04:56:01.787Z,-1.06
2018-12-14T04:58:34.424Z,-1.07
2018-12-14T05:01:07.024Z,-1.07
2018-12-14T05:03:39.610Z,-0.99
2018-12-14T05:06:12.213Z,-1.02
2018-12-14T05:08:44.747Z,-1.04
2018-12-14T05:11:17.424Z,-1.10
2018-12-14T05:13:50.024Z,-1.07
2018-12-14T05:16:22.808Z,-1.04
2018-12-14T05:18:55.535Z,-1.08
2018-12-14T05:21:29.011Z,-1.07
2018-12-14T05:24:01.565Z,-1.10
2018-12-14T05:26:34.181Z,-1.13
2018-12-14T05:29:06.744Z,-1.14
2018-12-14T05:31:39.362Z,-1.12
2018-12-14T05:34:11.956Z,-1.06
2018-12-14T05:36:44.566Z,-1.01
2018-12-14T05:39:17.360Z,-0.95
2018-12-14T05:41:50.782Z,-0.93
2018-12-14T05:44:25.092Z,-0.93
2018-12-14T05:46:58.838Z,-0.94
2018-12-14T05:49:31.450Z,-0.94
2018-12-14T05:52:06.074Z,-0.91
2018-12-14T05:54:38.781Z,-0.94
2018-12-14T05:57:11.368Z,-0.82
2018-12-14T05:59:43.930Z,-0.82
2018-12-14T06:02:16.520Z,-0.81
2018-12-14T06:04:49.179Z,-0.75
2018-12-14T06:07:21.816Z,-0.81
2018-12-14T06:09:54.359Z,-0.78
2018-12-14T06:12:27.639Z,-0.77
2018-12-14T06:15:00.235Z,-0.74
2018-12-14T06:17:33.440Z,-0.77
2018-12-14T06:20:06.906Z,-0.84
2018-12-14T06:22:40.107Z,-0.84
2018-12-14T06:25:13.782Z,-0.95
2018-12-14T06:27:46.389Z,-0.92
2018-12-14T06:30:19.025Z,-0.91
2018-12-14T06:32:52.246Z,-1.00
2018-12-14T06:35:24.793Z,-1.03
2018-12-14T06:37:57.411Z,-1.01
2018-12-14T06:40:31.061Z,-0.99
2018-12-14T06:43:03.706Z,-1.03
2018-12-14T06:45:37.620Z,-1.00
2018-12-14T06:48:11.253Z,-1.05
2018-12-14T06:50:43.833Z,-1.08
2018-12-14T06:53:16.693Z,-1.00
2018-12-14T06:55:49.387Z,-1.03
2018-12-14T06:58:21.954Z,-1.10
2018-12-14T07:00:54.544Z,-1.13
2018-12-14T07:03:27.103Z,-1.10
2018-12-14T07:05:59.758Z,-1.11
2018-12-14T07:08:32.345Z,-1.12
2018-12-14T07:11:04.939Z,-1.15
2018-12-14T07:13:38.610Z,-1.08
2018-12-14T07:16:11.186Z,-1.16
2018-12-14T07:18:44.403Z,-1.17
2018-12-14T07:21:17.103Z,-1.21
2018-12-14T07:23:49.954Z,-1.14
2018-12-14T07:26:22.556Z,-1.16
2018-12-14T07:28:55.247Z,-1.19
2018-12-14T07:31:28.279Z,-1.20
2018-12-14T07:34:00.951Z,-1.25
2018-12-14T07:36:33.525Z,-1.23
2018-12-14T07:39:06.603Z,-1.24
2018-12-14T07:41:41.245Z,-1.22
2018-12-14T07:44:13.801Z,-1.23
2018-12-14T07:46:46.898Z,-1.24
2018-12-14T07:49:19.526Z,-1.25
2018-12-14T07:51:52.149Z,-1.23
2018-12-14T07:54:25.650Z,-1.16
2018-12-14T07:56:58.249Z,-1.12
2018-12-14T07:59:32.999Z,-1.08
2018-12-14T08:02:05.455Z,-1.05
2018-12-14T08:04:38.407Z,-1.04
2018-12-14T08:07:11.008Z,-0.94
2018-12-14T08:09:43.510Z,-0.85
2018-12-14T08:12:16.145Z,-0.83
2018-12-14T08:14:48.683Z,-0.82
2018-12-14T08:17:21.310Z,-0.78
2018-12-14T08:19:54.759Z,-0.75
2018-12-14T08:22:27.992Z,-0.72
2018-12-14T08:25:00.595Z,-0.66
2018-12-14T08:27:33.206Z,-0.58
2018-12-14T08:30:07.726Z,-0.59
2018-12-14T08:32:40.457Z,-0.59
2018-12-14T08:35:13.670Z,-0.57
2018-12-14T08:37:46.203Z,-0.47
2018-12-14T08:40:19.401Z,-0.41
2018-12-14T08:42:52.608Z,-0.36
2018-12-14T08:45:25.161Z,-0.28
2018-12-14T08:47:58.059Z,-0.28
2018-12-14T08:50:31.753Z,-0.16
2018-12-14T08:53:04.316Z,-0.02
2018-12-14T08:55:37.794Z,0.20
2018-12-14T08:58:10.483Z,0.16
2018-12-14T09:00:43.033Z,0.08
2018-12-14T09:03:15.616Z,0.10
2018-12-14T09:05:48.259Z,0.17
2018-12-14T09:08:20.838Z,0.37
2018-12-14T09:10:53.424Z,0.29
2018-12-14T09:13:27.206Z,0.44
2018-12-14T09:15:59.830Z,0.29
2018-12-14T09:18:32.496Z,0.40
2018-12-14T09:21:05.042Z,0.47
2018-12-14T09:23:37.701Z,0.57
2018-12-14T09:26:10.401Z,0.64
2018-12-14T09:28:43.248Z,0.71
2018-12-14T09:31:16.996Z,0.75
2018-12-14T09:33:49.539Z,0.76
2018-12-14T09:36:23.205Z,0.69
2018-12-14T09:38:55.752Z,0.70
2018-12-14T09:41:28.373Z,0.95
2018-12-14T09:44:01.035Z,1.30
2018-12-14T09:46:37.144Z,1.41
2018-12-14T09:49:08.960Z,1.36
2018-12-14T09:51:41.577Z,1.93
2018-12-14T09:54:14.148Z,2.06
2018-12-14T09:56:46.826Z,1.99
2018-12-14T09:59:19.445Z,2.06
2018-12-14T10:01:52.085Z,1.85
2018-12-14T10:04:24.574Z,1.82
2018-12-14T10:06:57.105Z,1.08
2018-12-14T10:09:30.699Z,1.23
2018-12-14T10:12:03.436Z,1.28
2018-12-14T10:14:35.998Z,0.93
2018-12-14T10:17:08.636Z,0.72
2018-12-14T10:19:41.522Z,0.63
2018-12-14T10:22:14.362Z,0.53
2018-12-14T10:24:47.496Z,0.57
2018-12-14T10:27:20.106Z,0.53
2018-12-14T10:29:52.689Z,0.59
2018-12-14T10:32:25.322Z,0.65
2018-12-14T10:34:58.243Z,0.59
2018-12-14T10:37:31.843Z,0.57
2018-12-14T10:40:05.667Z,0.81
2018-12-14T10:42:38.411Z,0.92
2018-12-14T10:45:11.984Z,0.94
2018-12-14T10:47:44.587Z,0.85
2018-12-14T10:50:17.196Z,1.11
2018-12-14T10:52:49.834Z,0.77
2018-12-14T10:55:22.523Z,0.92
2018-12-14T10:57:56.310Z,0.63
2018-12-14T11:00:34.463Z,0.94
2018-12-14T11:03:07.474Z,1.07
2018-12-14T11:05:40.148Z,1.05
2018-12-14T11:08:13.635Z,1.33
2018-12-14T11:10:46.292Z,1.06
2018-12-14T11:13:18.874Z,1.13
2018-12-14T11:15:52.505Z,1.18
2018-12-14T11:18:25.682Z,1.20
2018-12-14T11:20:58.262Z,0.98
2018-12-14T11:23:31.901Z,1.15
2018-12-14T11:26:04.625Z,1.08
2018-12-14T11:28:37.188Z,1.06
2018-12-14T11:31:09.808Z,1.20
2018-12-14T11:33:42.467Z,2.12
2018-12-14T11:36:15.156Z,2.79
2018-12-14T11:38:47.757Z,2.61
2018-12-14T11:41:21.078Z,2.82
2018-12-14T11:43:53.697Z,3.12
2018-12-14T11:46:26.259Z,3.05
2018-12-14T11:48:58.880Z,3.17
2018-12-14T11:51:31.527Z,2.47
2018-12-14T11:54:05.083Z,2.45
2018-12-14T11:56:37.649Z,2.55
2018-12-14T11:59:10.174Z,2.93
2018-12-14T12:01:42.779Z,3.47
2018-12-14T12:04:15.310Z,3.87
2018-12-14T12:06:47.916Z,3.40
2018-12-14T12:09:20.522Z,3.78
2018-12-14T12:11:54.060Z,3.59
2018-12-14T12:14:27.158Z,3.20
2018-12-14T12:17:00.726Z,3.54
2018-12-14T12:19:33.305Z,3.49
2018-12-14T12:22:05.896Z,3.32
2018-12-14T12:24:38.457Z,3.14
2018-12-14T12:27:11.070Z,2.37
2018-12-14T12:29:43.632Z,2.54
2018-12-14T12:32:16.323Z,2.95
2018-12-14T12:34:49.088Z,2.57
2018-12-14T12:37:21.677Z,1.97
2018-12-14T12:39:54.282Z,1.81
2018-12-14T12:42:27.022Z,2.04
2018-12-14T12:44:59.588Z,2.01
2018-12-14T12:47:32.207Z,1.91
2018-12-14T12:50:05.077Z,1.99
2018-12-14T12:52:37.708Z,2.29
2018-12-14T12:55:10.320Z,2.40
2018-12-14T12:57:43.008Z,3.09
2018-12-14T13:00:15.597Z,2.59
2018-12-14T13:02:49.355Z,2.94
2018-12-14T13:05:21.999Z,2.75
2018-12-14T13:07:54.594Z,2.46
2018-12-14T13:10:27.145Z,2.63
2018-12-14T13:12:59.711Z,1.83
2018-12-14T13:15:32.310Z,1.85
2018-12-14T13:18:05.638Z,1.35
2018-12-14T13:20:39.386Z,1.79
2018-12-14T13:23:12.767Z,1.74
2018-12-14T13:25:45.326Z,1.67
2018-12-14T13:28:19.377Z,1.08
2018-12-14T13:30:51.977Z,0.92
2018-12-14T13:33:24.638Z,1.13
2018-12-14T13:35:57.450Z,1.16
2018-12-14T13:38:30.236Z,0.94
2018-12-14T13:41:02.948Z,0.89
2018-12-14T13:43:35.591Z,0.64
2018-12-14T13:46:08.233Z,0.88
2018-12-14T13:48:41.192Z,0.71
2018-12-14T13:51:13.939Z,0.74
2018-12-14T13:53:46.492Z,0.64
2018-12-14T13:56:19.155Z,0.65
2018-12-14T13:58:51.799Z,0.69
2018-12-14T14:01:24.437Z,0.61
2018-12-14T14:03:57.311Z,0.69
2018-12-14T14:06:30.267Z,0.75
2018-12-14T14:09:04.547Z,0.72
2018-12-14T14:11:39.770Z,0.57
2018-12-14T14:14:13.187Z,0.54
2018-12-14T14:16:47.356Z,0.55
2018-12-14T14:19:21.821Z,0.50
2018-12-14T14:21:54.401Z,0.48
2018-12-14T14:24:27.405Z,0.51
2018-12-14T14:26:59.958Z,0.58
2018-12-14T14:29:32.661Z,0.45
2018-12-14T14:32:05.244Z,0.48
2018-12-14T14:34:37.949Z,0.47
2018-12-14T14:37:13.677Z,0.56
2018-12-14T14:39:46.283Z,0.49
2018-12-14T14:42:19.573Z,0.53
2018-12-14T14:44:52.259Z,0.44
2018-12-14T14:47:24.803Z,0.32
2018-12-14T14:49:57.424Z,0.33
2018-12-14T14:52:30.603Z,0.34
2018-12-14T14:55:04.356Z,0.29
2018-12-14T14:57:37.290Z,0.36
2018-12-14T15:00:10.084Z,0.28
2018-12-14T15:02:42.869Z,0.30
2018-12-14T15:05:15.450Z,0.27
2018-12-14T15:07:48.033Z,0.22
2018-12-14T15:10:22.272Z,0.25
2018-12-14T15:12:55.070Z,0.23
2018-12-14T15:15:27.697Z,0.25
2018-12-14T15:18:02.486Z,0.22
2018-12-14T15:20:35.078Z,0.25
2018-12-14T15:23:07.779Z,0.15
2018-12-14T15:25:41.367Z,0.20
2018-12-14T15:28:13.959Z,0.15
2018-12-14T15:30:46.572Z,0.14
2018-12-14T15:33:19.747Z,0.15
2018-12-14T15:35:52.399Z,0.15
2018-12-14T15:38:24.994Z,0.12
2018-12-14T15:40:57.553Z,0.07
2018-12-14T15:43:30.223Z,0.08
2018-12-14T15:46:02.823Z,0.08
2018-12-14T15:48:35.843Z,0.08
2018-12-14T15:51:08.500Z,0.06
2018-12-14T15:53:41.728Z,0.03
2018-12-14T15:56:14.324Z,0.07
2018-12-14T15:58:46.873Z,0.08
2018-12-14T16:01:20.465Z,0.03
2018-12-14T16:03:53.114Z,0.02
2018-12-14T16:06:25.730Z,0.04
2018-12-14T16:08:59.041Z,-0.01
2018-12-14T16:11:32.661Z,-0.02
2018-12-14T16:14:05.278Z,-0.05
2018-12-14T16:16:37.985Z,-0.04
2018-12-14T16:19:11.361Z,-0.06
2018-12-14T16:21:43.973Z,-0.08
2018-12-14T16:24:18.523Z,-0.01
2018-12-14T16:26:51.752Z,-0.12
2018-12-14T16:29:24.682Z,-0.06
2018-12-14T16:31:57.322Z,-0.08
2018-12-14T16:34:30.013Z,-0.07
2018-12-14T16:37:02.959Z,-0.03
2018-12-14T16:39:35.846Z,-0.10
2018-12-14T16:42:08.534Z,-0.16
2018-12-14T16:44:41.398Z,-0.13
2018-12-14T16:47:15.080Z,-0.19
2018-12-14T16:49:47.699Z,-0.19
2018-12-14T16:52:20.469Z,-0.16
2018-12-14T16:54:53.292Z,-0.21
2018-12-14T16:57:26.819Z,-0.22
2018-12-14T17:00:00.587Z,-0.26
2018-12-14T17:02:33.311Z,-0.18
2018-12-14T17:05:07.280Z,-0.22
2018-12-14T17:07:40.311Z,-0.22
2018-12-14T17:10:13.984Z,-0.24
2018-12-14T17:12:46.759Z,-0.24
2018-12-14T17:16:23.172Z,-0.24
2018-12-14T17:18:56.815Z,-0.30
2018-12-14T17:21:29.573Z,-0.29
2018-12-14T17:24:02.262Z,-0.24
2018-12-14T17:26:35.172Z,-0.24
2018-12-14T17:29:08.198Z,-0.26
2018-12-14T17:31:42.124Z,-0.30
2018-12-14T17:34:15.519Z,-0.29
2018-12-14T17:36:49.350Z,-0.24
2018-12-14T17:39:24.634Z,-0.24
2018-12-14T17:44:45.555Z,-0.29
2018-12-14T17:47:18.831Z,-0.29
2018-12-14T17:49:53.730Z,-0.21
2018-12-14T17:52:26.612Z,-0.27
2018-12-14T17:55:00.028Z,-0.31
2018-12-14T17:57:32.783Z,-0.28
2018-12-14T18:00:05.714Z,-0.31
2018-12-14T18:02:38.296Z,-0.28
2018-12-14T18:05:11.080Z,-0.29
2018-12-14T18:07:44.679Z,-0.33
2018-12-14T18:10:17.789Z,-0.27
2018-12-14T18:12:50.672Z,-0.32
2018-12-14T18:15:23.507Z,-0.32
2018-12-14T18:17:56.318Z,-0.24
2018-12-14T18:20:28.930Z,-0.22
2018-12-14T18:23:02.370Z,-0.32
2018-12-14T18:25:35.022Z,-0.24
2018-12-14T18:28:07.695Z,-0.26
2018-12-14T18:30:41.243Z,-0.30
2018-12-14T18:33:14.836Z,-0.27
2018-12-14T18:35:47.531Z,-0.30
2018-12-14T18:38:20.251Z,-0.33
2018-12-14T18:40:52.797Z,-0.38
2018-12-14T18:43:25.522Z,-0.36
2018-12-14T18:45:58.351Z,-0.36
2018-12-14T18:48:31.012Z,-0.37
2018-12-14T18:51:03.662Z,-0.38
2018-12-14T18:53:37.612Z,-0.30
2018-12-14T18:56:10.210Z,-0.32
2018-12-14T18:58:43.299Z,-0.26
2018-12-14T19:01:15.884Z,-0.30
2018-12-14T19:03:48.730Z,-0.34
2018-12-14T19:06:21.583Z,-0.36
2018-12-14T19:08:54.232Z,-0.33
2018-12-14T19:11:26.863Z,-0.34
2018-12-14T19:13:59.666Z,-0.35
2018-12-14T19:16:33.244Z,-0.21
2018-12-14T19:19:05.914Z,-0.24
2018-12-14T19:21:39.241Z,-0.28
2018-12-14T19:24:11.841Z,-0.25
2018-12-14T19:26:44.596Z,-0.24
2018-12-14T19:29:17.351Z,-0.23
2018-12-14T19:31:49.974Z,-0.26
2018-12-14T19:34:22.641Z,-0.30
2018-12-14T19:36:55.270Z,-0.33
2018-12-14T19:39:28.159Z,-0.30
2018-12-14T19:42:00.802Z,-0.35
2018-12-14T19:44:33.705Z,-0.36
2018-12-14T19:47:06.661Z,-0.36
2018-12-14T19:49:40.617Z,-0.33
2018-12-14T19:52:13.532Z,-0.30
2018-12-14T19:54:46.440Z,-0.35
2018-12-14T19:57:19.145Z,-0.33
2018-12-14T19:59:51.791Z,-0.29
2018-12-14T20:02:24.678Z,-0.30
2018-12-14T20:04:57.824Z,-0.24
2018-12-14T20:07:30.975Z,-0.16
2018-12-14T20:10:09.624Z,-0.31
2018-12-14T20:12:43.088Z,-0.29
2018-12-14T20:15:16.102Z,-0.24
2018-12-14T20:17:50.260Z,-0.30
2018-12-14T20:20:29.583Z,-0.33
2018-12-14T20:23:02.322Z,-0.29
2018-12-14T20:25:35.735Z,-0.32
2018-12-14T20:28:08.523Z,-0.27
2018-12-14T20:30:42.466Z,-0.36
2018-12-14T20:33:15.542Z,-0.45
2018-12-14T20:35:49.469Z,-0.40
2018-12-14T20:38:23.861Z,-0.46
2018-12-14T20:40:56.615Z,-0.47
2018-12-14T20:43:31.046Z,-0.47
2018-12-14T20:46:03.762Z,-0.52
2018-12-14T20:48:36.487Z,-0.55
2018-12-14T20:51:09.203Z,-0.51
2018-12-14T20:53:41.927Z,-0.48
2018-12-14T20:56:15.536Z,-0.54
2018-12-14T20:58:48.191Z,-0.50
2018-12-14T21:01:21.839Z,-0.45
2018-12-14T21:03:54.522Z,-0.51
2018-12-14T21:06:27.488Z,-0.50
2018-12-14T21:09:01.037Z,-0.55
2018-12-14T21:11:33.892Z,-0.52
2018-12-14T21:14:06.725Z,-0.49
2018-12-14T21:16:39.438Z,-0.44
2018-12-14T21:22:15.926Z,-0.46
2018-12-14T21:24:49.564Z,-0.44
2018-12-14T21:27:22.235Z,-0.43
2018-12-14T21:29:54.925Z,-0.44
